createdAt,value
2023-05-10T00:00:15.005Z,16.48
2023-05-10T00:02:43.015Z,16.46
2023-05-10T00:05:10.813Z,16.44
2023-05-10T00:07:38.397Z,16.45
2023-05-10T00:10:06.807Z,16.44
2023-05-10T00:12:35.661Z,16.45
2023-05-10T00:15:03.807Z,16.48
2023-05-10T00:17:31.449Z,16.41
2023-05-10T00:19:59.081Z,16.40
2023-05-10T00:22:26.749Z,16.36
2023-05-10T00:24:54.350Z,16.36
2023-05-10T00:27:21.915Z,16.37
2023-05-10T00:29:51.073Z,16.39
2023-05-10T00:32:18.779Z,16.41
2023-05-10T00:34:46.560Z,16.44
2023-05-10T00:37:14.118Z,16.46
2023-05-10T00:39:41.742Z,16.46
2023-05-10T00:42:09.383Z,16.42
2023-05-10T00:44:37.112Z,16.42
2023-05-10T00:47:06.275Z,16.39
2023-05-10T00:49:34.076Z,16.38
2023-05-10T00:52:02.942Z,16.36
2023-05-10T00:54:30.971Z,16.34
2023-05-10T00:56:58.543Z,16.35
2023-05-10T00:59:26.429Z,16.34
2023-05-10T01:01:54.296Z,16.33
2023-05-10T01:04:26.592Z,16.27
2023-05-10T01:06:54.787Z,16.22
2023-05-10T01:09:23.169Z,16.15
2023-05-10T01:11:51.407Z,16.10
2023-05-10T01:14:21.010Z,16.00
2023-05-10T01:16:50.621Z,15.93
2023-05-10T01:19:25.359Z,15.97
2023-05-10T01:22:04.108Z,15.98
2023-05-10T01:25:12.450Z,16.01
2023-05-10T01:28:16.984Z,16.00
2023-05-10T01:31:08.845Z,15.98
2023-05-10T01:33:43.520Z,15.98
2023-05-10T01:36:18.290Z,15.94
2023-05-10T01:38:52.613Z,15.95
2023-05-10T01:41:26.969Z,15.94
2023-05-10T01:43:59.380Z,15.94
2023-05-10T01:46:29.471Z,15.90
2023-05-10T01:49:01.297Z,15.81
2023-05-10T01:51:37.617Z,15.71
2023-05-10T01:54:07.644Z,15.57
2023-05-10T01:56:38.519Z,15.48
2023-05-10T01:59:10.537Z,15.42
2023-05-10T02:01:39.278Z,15.34
2023-05-10T02:04:10.132Z,15.25
2023-05-10T02:06:40.410Z,15.17
2023-05-10T02:09:08.971Z,15.11
2023-05-10T02:11:39.476Z,15.10
2023-05-10T02:14:09.844Z,15.09
2023-05-10T02:16:38.718Z,15.08
2023-05-10T02:19:09.494Z,15.06
2023-05-10T02:21:37.809Z,15.01
2023-05-10T02:24:07.301Z,14.96
2023-05-10T02:26:37.098Z,14.94
2023-05-10T02:29:06.463Z,14.90
2023-05-10T02:31:35.275Z,14.87
2023-05-10T02:34:04.592Z,14.84
2023-05-10T02:36:34.451Z,14.79
2023-05-10T02:39:03.946Z,14.76
2023-05-10T02:41:34.270Z,14.72
2023-05-10T02:44:04.681Z,14.69
2023-05-10T02:46:32.584Z,14.70
2023-05-10T02:49:00.349Z,14.70
2023-05-10T02:51:32.756Z,14.72
2023-05-10T02:54:09.283Z,14.71
2023-05-10T02:56:42.664Z,14.69
2023-05-10T02:59:10.347Z,14.63
2023-05-10T03:01:37.946Z,14.57
2023-05-10T03:04:06.209Z,14.51
2023-05-10T03:06:34.009Z,14.43
2023-05-10T03:09:04.318Z,14.36
2023-05-10T03:11:43.860Z,14.33
2023-05-10T03:14:23.260Z,14.28
2023-05-10T03:16:58.553Z,14.21
2023-05-10T03:19:32.262Z,14.18
2023-05-10T03:22:05.731Z,14.20
2023-05-10T03:24:37.750Z,14.26
2023-05-10T03:27:06.421Z,14.29
2023-05-10T03:29:34.982Z,14.35
2023-05-10T03:32:02.626Z,14.35
2023-05-10T03:34:32.356Z,14.38
2023-05-10T03:36:59.875Z,14.37
2023-05-10T03:39:27.409Z,14.32
2023-05-10T03:41:56.250Z,14.31
2023-05-10T03:44:23.767Z,14.32
2023-05-10T03:46:51.316Z,14.34
2023-05-10T03:49:18.874Z,14.36
2023-05-10T03:51:46.415Z,14.39
2023-05-10T03:54:13.950Z,14.40
2023-05-10T03:56:41.419Z,14.42
2023-05-10T03:59:10.275Z,14.45
2023-05-10T04:01:37.795Z,14.43
2023-05-10T04:04:05.745Z,14.45
2023-05-10T04:06:33.914Z,14.50
2023-05-10T04:09:04.962Z,14.55
2023-05-10T04:11:32.504Z,14.55
2023-05-10T04:14:00.016Z,14.54
2023-05-10T04:16:28.961Z,14.57
2023-05-10T04:18:56.593Z,14.57
2023-05-10T04:21:24.177Z,14.58
2023-05-10T04:23:51.843Z,14.56
2023-05-10T04:26:19.373Z,14.59
2023-05-10T04:28:46.916Z,14.59
2023-05-10T04:31:14.516Z,14.61
2023-05-10T04:33:43.409Z,14.61
2023-05-10T04:36:11.099Z,14.62
2023-05-10T04:38:38.678Z,14.61
2023-05-10T04:41:07.460Z,14.64
2023-05-10T04:43:35.220Z,14.64
2023-05-10T04:46:02.952Z,14.62
2023-05-10T04:48:30.899Z,14.62
2023-05-10T04:50:59.764Z,14.61
2023-05-10T04:53:27.389Z,14.63
2023-05-10T04:55:54.897Z,14.68
2023-05-10T04:58:22.645Z,14.71
2023-05-10T05:00:50.193Z,14.73
2023-05-10T05:03:18.368Z,14.74
2023-05-10T05:05:46.082Z,14.71
2023-05-10T05:08:14.919Z,14.72
2023-05-10T05:10:42.457Z,14.69
2023-05-10T05:13:12.498Z,14.69
2023-05-10T05:15:40.046Z,14.72
2023-05-10T05:18:07.581Z,14.72
2023-05-10T05:20:35.335Z,14.72
2023-05-10T05:23:02.964Z,14.73
2023-05-10T05:25:31.936Z,14.74
2023-05-10T05:27:59.485Z,14.77
2023-05-10T05:30:28.673Z,14.80
2023-05-10T05:32:56.311Z,14.79
2023-05-10T05:35:23.884Z,14.78
2023-05-10T05:37:51.379Z,14.81
2023-05-10T05:40:18.898Z,14.82
2023-05-10T05:42:47.913Z,14.83
2023-05-10T05:45:15.688Z,14.90
2023-05-10T05:47:43.581Z,14.90
2023-05-10T05:50:12.051Z,14.83
2023-05-10T05:52:39.682Z,14.80
2023-05-10T05:55:07.579Z,14.81
2023-05-10T05:57:35.089Z,14.81
2023-05-10T06:00:04.451Z,14.82
2023-05-10T06:02:32.056Z,14.83
2023-05-10T06:04:59.614Z,14.85
2023-05-10T06:07:27.485Z,14.86
2023-05-10T06:10:32.530Z,14.86
2023-05-10T06:13:00.118Z,14.82
2023-05-10T06:15:29.117Z,14.80
2023-05-10T06:17:56.741Z,14.79
2023-05-10T06:20:24.548Z,14.80
2023-05-10T06:22:52.155Z,14.87
2023-05-10T06:25:20.349Z,14.89
2023-05-10T06:27:51.147Z,14.88
2023-05-10T06:30:21.283Z,14.83
2023-05-10T06:32:50.397Z,14.79
2023-05-10T06:35:18.369Z,14.76
2023-05-10T06:37:47.641Z,14.78
2023-05-10T06:40:15.526Z,14.79
2023-05-10T06:42:43.106Z,14.80
2023-05-10T06:45:11.652Z,14.82
2023-05-10T06:47:39.522Z,14.84
2023-05-10T06:50:09.428Z,14.88
2023-05-10T06:52:37.458Z,14.86
2023-05-10T06:55:05.963Z,14.84
2023-05-10T06:57:33.901Z,14.81
2023-05-10T07:00:02.062Z,14.76
2023-05-10T07:02:29.870Z,14.72
2023-05-10T07:04:59.500Z,14.75
2023-05-10T07:07:29.934Z,14.77
2023-05-10T07:09:58.628Z,14.77
2023-05-10T07:12:26.596Z,14.80
2023-05-10T07:14:54.221Z,14.84
2023-05-10T07:17:21.934Z,14.90
2023-05-10T07:19:49.557Z,14.92
2023-05-10T07:22:17.597Z,14.94
2023-05-10T07:24:46.501Z,14.94
2023-05-10T07:27:14.783Z,14.95
2023-05-10T07:29:42.298Z,14.95
2023-05-10T07:32:09.856Z,14.95
2023-05-10T07:34:37.406Z,14.98
2023-05-10T07:37:05.200Z,15.06
2023-05-10T07:39:32.708Z,15.13
2023-05-10T07:42:01.589Z,15.14
2023-05-10T07:44:29.090Z,15.15
2023-05-10T07:46:56.616Z,15.18
2023-05-10T07:49:25.076Z,15.20
2023-05-10T07:51:52.805Z,15.21
2023-05-10T07:54:20.314Z,15.19
2023-05-10T07:56:48.304Z,15.21
2023-05-10T07:59:19.539Z,15.26
2023-05-10T08:01:47.166Z,15.37
2023-05-10T08:04:14.766Z,15.53
2023-05-10T08:06:42.577Z,15.64
2023-05-10T08:09:10.678Z,15.77
2023-05-10T08:11:38.335Z,15.88
2023-05-10T08:14:06.210Z,15.92
2023-05-10T08:16:35.338Z,15.94
2023-05-10T08:19:03.068Z,15.91
2023-05-10T08:21:32.117Z,15.90
2023-05-10T08:23:59.739Z,15.89
2023-05-10T08:26:27.408Z,15.87
2023-05-10T08:28:54.945Z,15.87
2023-05-10T08:31:22.588Z,15.88
2023-05-10T08:33:52.495Z,15.89
2023-05-10T08:36:22.542Z,15.86
2023-05-10T08:38:52.351Z,15.85
2023-05-10T08:41:21.955Z,15.84
2023-05-10T08:43:49.797Z,15.81
2023-05-10T08:46:19.796Z,15.80
2023-05-10T08:48:48.248Z,15.81
2023-05-10T08:51:19.989Z,15.85
2023-05-10T08:53:48.149Z,15.91
2023-05-10T08:56:18.670Z,15.99
2023-05-10T08:58:46.441Z,16.11
2023-05-10T09:01:15.752Z,16.21
2023-05-10T09:03:43.733Z,16.31
2023-05-10T09:06:14.115Z,16.42
2023-05-10T09:08:43.927Z,16.44
2023-05-10T09:11:12.509Z,16.40
2023-05-10T09:13:40.476Z,16.32
2023-05-10T09:16:20.433Z,16.21
2023-05-10T09:18:50.392Z,16.09
2023-05-10T09:21:18.243Z,16.02
2023-05-10T09:23:48.674Z,16.00
2023-05-10T09:26:17.031Z,15.97
2023-05-10T09:28:55.681Z,15.94
2023-05-10T09:31:23.577Z,15.93
2023-05-10T09:33:52.390Z,15.91
2023-05-10T09:36:19.987Z,15.90
2023-05-10T09:38:50.001Z,15.91
2023-05-10T09:41:18.979Z,15.94
2023-05-10T09:43:46.547Z,16.00
2023-05-10T09:46:14.137Z,16.07
2023-05-10T09:48:47.173Z,16.06
2023-05-10T09:51:21.201Z,15.99
2023-05-10T09:53:51.593Z,15.95
2023-05-10T09:56:38.519Z,16.00
2023-05-10T09:59:06.359Z,16.02
2023-05-10T10:01:33.950Z,16.07
2023-05-10T10:04:05.684Z,16.15
2023-05-10T10:06:47.758Z,16.18
2023-05-10T10:09:19.552Z,16.22
2023-05-10T10:11:48.704Z,16.20
2023-05-10T10:14:17.238Z,16.14
2023-05-10T10:17:05.093Z,16.08
2023-05-10T10:19:37.257Z,15.99
2023-05-10T10:22:06.343Z,15.95
2023-05-10T10:24:36.148Z,15.95
2023-05-10T10:27:14.753Z,15.93
2023-05-10T10:29:52.008Z,15.95
2023-05-10T10:32:28.281Z,15.94
2023-05-10T10:37:46.403Z,16.08
2023-05-10T16:09:52.911Z,15.82
2023-05-10T16:12:20.458Z,15.83
2023-05-10T16:14:48.089Z,15.84
2023-05-10T16:17:16.139Z,15.80
2023-05-10T16:19:43.807Z,15.76
2023-05-10T16:22:11.438Z,15.77
2023-05-10T16:24:38.994Z,15.72
2023-05-10T16:27:08.070Z,15.71
2023-05-10T16:29:35.688Z,15.71
2023-05-10T16:32:03.202Z,15.73
2023-05-10T16:34:30.877Z,15.73
2023-05-10T16:36:58.371Z,15.69
2023-05-10T16:39:25.926Z,15.68
2023-05-10T16:41:53.464Z,15.72
2023-05-10T16:44:24.507Z,15.74
2023-05-10T16:46:54.959Z,15.73
2023-05-10T16:49:25.229Z,15.76
2023-05-10T16:51:53.574Z,15.77
2023-05-10T16:54:21.859Z,15.77
2023-05-10T16:56:49.409Z,15.75
2023-05-10T16:59:17.381Z,15.74
2023-05-10T17:01:46.978Z,15.71
2023-05-10T17:04:15.011Z,15.71
2023-05-10T17:06:42.508Z,15.70
2023-05-10T17:09:10.042Z,15.64
2023-05-10T17:11:37.660Z,15.58
2023-05-10T17:14:05.230Z,15.58
2023-05-10T17:16:32.791Z,15.60
2023-05-10T17:19:01.826Z,15.61
2023-05-10T17:21:29.389Z,15.57
2023-05-10T17:23:57.152Z,15.55
2023-05-10T17:26:24.845Z,15.57
2023-05-10T17:28:54.142Z,15.57
2023-05-10T17:31:22.213Z,15.55
2023-05-10T17:33:50.199Z,15.55
2023-05-10T17:36:20.167Z,15.49
2023-05-10T17:38:48.428Z,15.47
2023-05-10T17:41:17.237Z,15.51
2023-05-10T17:43:45.424Z,15.51
2023-05-10T17:46:13.730Z,15.48
2023-05-10T17:48:42.140Z,15.45
2023-05-10T17:51:11.474Z,15.44
2023-05-10T17:53:41.782Z,15.46
2023-05-10T17:56:09.721Z,15.48
2023-05-10T17:58:38.661Z,15.49
2023-05-10T18:01:07.276Z,15.50
2023-05-10T18:03:36.033Z,15.48
2023-05-10T18:06:04.862Z,15.46
2023-05-10T18:08:33.479Z,15.44
2023-05-10T18:11:03.277Z,15.44
2023-05-10T18:13:31.135Z,15.46
2023-05-10T18:15:59.660Z,15.45
2023-05-10T18:18:28.222Z,15.44
2023-05-10T18:20:58.316Z,15.44
2023-05-10T18:23:26.568Z,15.44
2023-05-10T18:25:54.328Z,15.43
2023-05-10T18:28:24.796Z,15.40
2023-05-10T18:30:53.189Z,15.38
2023-05-10T18:33:21.633Z,15.36
2023-05-10T18:35:49.688Z,15.35
2023-05-10T18:38:17.824Z,15.35
2023-05-10T18:40:45.756Z,15.32
2023-05-10T18:43:14.060Z,15.34
2023-05-10T18:45:43.977Z,15.32
2023-05-10T18:48:11.717Z,15.29
2023-05-10T18:50:39.886Z,15.27
2023-05-10T18:53:09.087Z,15.21
2023-05-10T18:55:36.856Z,15.16
2023-05-10T18:58:12.644Z,15.13
2023-05-10T19:00:40.943Z,15.14
2023-05-10T19:03:10.761Z,15.14
2023-05-10T19:05:39.744Z,15.13
2023-05-10T19:08:07.664Z,15.13
2023-05-10T19:10:35.209Z,15.11
2023-05-10T19:13:02.855Z,15.13
2023-05-10T19:15:30.467Z,15.12
2023-05-10T19:17:59.009Z,15.06
2023-05-10T19:20:29.127Z,14.92
2023-05-10T19:23:09.186Z,14.81
2023-05-10T19:25:39.312Z,14.72
2023-05-10T19:28:08.963Z,14.63
2023-05-10T19:30:37.942Z,14.55
2023-05-10T19:33:06.549Z,14.49
2023-05-10T19:35:35.558Z,14.41
2023-05-10T19:38:03.099Z,14.36
2023-05-10T19:40:30.675Z,14.30
2023-05-10T19:42:58.200Z,14.26
2023-05-10T19:45:26.218Z,14.28
2023-05-10T19:47:53.761Z,14.32
2023-05-10T19:50:21.316Z,14.36
2023-05-10T19:52:51.020Z,14.33
2023-05-10T19:55:28.993Z,14.26
2023-05-10T19:57:56.636Z,14.18
2023-05-10T20:00:25.040Z,14.16
2023-05-10T20:02:52.657Z,14.15
2023-05-10T20:05:20.422Z,14.14
2023-05-10T20:07:47.923Z,14.10
2023-05-10T20:10:17.408Z,14.05
2023-05-10T20:12:55.313Z,13.98
2023-05-10T20:15:24.261Z,13.93
2023-05-10T20:17:53.217Z,13.90
2023-05-10T20:20:21.966Z,13.85
2023-05-10T20:22:50.376Z,13.80
2023-05-10T20:25:19.900Z,13.77
2023-05-10T20:27:47.561Z,13.75
2023-05-10T20:30:15.498Z,13.70
2023-05-10T20:32:43.679Z,13.67
2023-05-10T20:35:11.896Z,13.62
2023-05-10T20:37:39.523Z,13.60
2023-05-10T20:40:08.489Z,13.60
2023-05-10T20:42:37.498Z,13.63
2023-05-10T20:45:05.685Z,13.63
2023-05-10T20:47:33.216Z,13.63
2023-05-10T20:50:00.804Z,13.62
2023-05-10T20:52:28.361Z,13.63
2023-05-10T20:54:55.930Z,13.64
2023-05-10T20:57:23.437Z,13.64
2023-05-10T20:59:52.362Z,13.64
2023-05-10T21:02:19.899Z,13.64
2023-05-10T21:04:47.532Z,13.58
2023-05-10T21:07:15.110Z,13.55
2023-05-10T21:09:42.665Z,13.51
2023-05-10T21:12:10.292Z,13.47
2023-05-10T21:14:37.815Z,13.42
2023-05-10T21:17:06.727Z,13.40
2023-05-10T21:19:34.513Z,13.38
2023-05-10T21:22:02.078Z,13.34
2023-05-10T21:24:29.563Z,13.32
2023-05-10T21:26:57.171Z,13.31
2023-05-10T21:29:24.691Z,13.30
2023-05-10T21:31:52.255Z,13.28
2023-05-10T21:34:21.901Z,13.25
2023-05-10T21:36:49.426Z,13.23
2023-05-10T21:39:16.978Z,13.22
2023-05-10T21:41:44.524Z,13.18
2023-05-10T21:44:12.306Z,13.18
2023-05-10T21:46:39.846Z,13.16
2023-05-10T21:49:07.349Z,13.14
2023-05-10T21:51:36.381Z,13.14
2023-05-10T21:54:03.922Z,13.14
2023-05-10T21:56:31.581Z,13.20
2023-05-10T21:58:59.118Z,13.26
2023-05-10T22:01:27.160Z,13.31
2023-05-10T22:03:54.789Z,13.31
2023-05-10T22:06:22.354Z,13.30
2023-05-10T22:08:51.274Z,13.26
2023-05-10T22:11:18.846Z,13.22
2023-05-10T22:13:46.378Z,13.17
2023-05-10T22:16:14.496Z,13.15
2023-05-10T22:18:42.302Z,13.15
2023-05-10T22:21:10.415Z,13.18
2023-05-10T22:23:38.287Z,13.28
2023-05-10T22:26:07.489Z,13.31
2023-05-10T22:28:35.081Z,13.25
2023-05-10T22:31:02.767Z,13.21
2023-05-10T22:33:30.625Z,13.15
2023-05-10T22:35:58.440Z,13.12
2023-05-10T22:38:26.204Z,13.14
2023-05-10T22:40:53.801Z,13.18
2023-05-10T22:43:22.929Z,13.23
2023-05-10T22:45:50.575Z,13.29
2023-05-10T22:48:18.338Z,13.34
2023-05-10T22:50:46.224Z,13.42
2023-05-10T22:53:14.008Z,13.50
2023-05-10T22:55:42.034Z,13.58
2023-05-10T22:58:09.790Z,13.63
2023-05-10T23:00:39.114Z,13.66
2023-05-10T23:03:07.090Z,13.67
2023-05-10T23:05:34.682Z,13.67
2023-05-10T23:08:02.326Z,13.59
2023-05-10T23:10:29.991Z,13.54
2023-05-10T23:12:57.573Z,13.52
2023-05-10T23:15:25.174Z,13.55
2023-05-10T23:17:54.112Z,13.60
2023-05-10T23:20:22.009Z,13.67
2023-05-10T23:22:49.626Z,13.72
2023-05-10T23:25:17.345Z,13.72
2023-05-10T23:27:45.242Z,13.74
2023-05-10T23:30:13.280Z,13.74
2023-05-10T23:32:41.099Z,13.75
2023-05-10T23:35:10.901Z,13.73
2023-05-10T23:37:38.551Z,13.75
2023-05-10T23:40:07.296Z,13.75
2023-05-10T23:42:34.848Z,13.76
2023-05-10T23:45:02.798Z,13.75
2023-05-10T23:47:30.593Z,13.75
2023-05-10T23:49:58.450Z,13.77
2023-05-10T23:52:27.512Z,13.77
2023-05-10T23:54:55.952Z,13.77
2023-05-10T23:57:23.635Z,13.75
2023-05-10T23:59:51.212Z,13.71
